createdAt,value
2022-08-30T00:01:01.697Z,101206.59
2022-08-30T00:03:28.491Z,101212.78
2022-08-30T00:05:56.326Z,101211.88
2022-08-30T00:08:23.460Z,101214.50
2022-08-30T00:10:51.208Z,101212.69
2022-08-30T00:13:19.514Z,101208.22
2022-08-30T00:15:47.037Z,101215.31
2022-08-30T00:18:15.698Z,101217.06
2022-08-30T00:20:42.840Z,101211.72
2022-08-30T00:23:09.438Z,101210.81
2022-08-30T00:25:36.129Z,101208.13
2022-08-30T00:28:03.211Z,101219.66
2022-08-30T00:30:30.628Z,101218.75
2022-08-30T00:32:58.067Z,101220.50
2022-08-30T00:35:25.458Z,101204.59
2022-08-30T00:37:51.957Z,101214.41
2022-08-30T00:40:20.460Z,101217.13
2022-08-30T00:42:59.303Z,101211.84
2022-08-30T00:45:35.156Z,101213.66
2022-08-30T00:48:02.057Z,101213.69
2022-08-30T00:50:34.607Z,101210.16
2022-08-30T00:53:04.112Z,101204.84
2022-08-30T00:55:30.919Z,101204.78
2022-08-30T00:58:01.948Z,101205.63
2022-08-30T01:00:31.639Z,101202.91
2022-08-30T01:02:58.595Z,101208.19
2022-08-30T01:05:25.321Z,101203.75
2022-08-30T01:07:51.842Z,101205.44
2022-08-30T01:10:19.026Z,101201.00
2022-08-30T01:12:46.700Z,101204.59
2022-08-30T01:15:14.665Z,101201.94
2022-08-30T01:17:46.760Z,101215.28
2022-08-30T01:20:20.768Z,101206.47
2022-08-30T01:22:50.317Z,101200.25
2022-08-30T01:25:22.240Z,101210.03
2022-08-30T01:28:17.991Z,101209.16
2022-08-30T01:30:44.847Z,101214.53
2022-08-30T01:33:12.184Z,101209.19
2022-08-30T01:35:48.850Z,101211.91
2022-08-30T01:38:18.229Z,101215.47
2022-08-30T01:40:45.051Z,101211.97
2022-08-30T01:43:14.178Z,101213.72
2022-08-30T01:45:41.388Z,101222.66
2022-08-30T01:48:08.935Z,101222.69
2022-08-30T01:50:35.620Z,101215.59
2022-08-30T01:53:04.573Z,101220.91
2022-08-30T01:55:31.239Z,101220.91
2022-08-30T01:57:57.895Z,101224.47
2022-08-30T02:00:24.952Z,101224.47
2022-08-30T02:02:51.767Z,101220.91
2022-08-30T02:05:18.594Z,101216.50
2022-08-30T02:07:45.111Z,101222.69
2022-08-30T02:10:11.857Z,101226.25
2022-08-30T02:12:38.384Z,101225.28
2022-08-30T02:15:06.472Z,101217.28
2022-08-30T02:17:33.164Z,101218.16
2022-08-30T02:19:59.687Z,101211.00
2022-08-30T02:22:26.500Z,101220.75
2022-08-30T02:24:52.994Z,101211.88
2022-08-30T02:27:19.498Z,101217.19
2022-08-30T02:29:45.985Z,101218.94
2022-08-30T02:32:12.540Z,101215.38
2022-08-30T02:34:39.027Z,101215.38
2022-08-30T02:37:06.275Z,101215.38
2022-08-30T02:39:32.928Z,101210.94
2022-08-30T02:41:59.544Z,101214.47
2022-08-30T02:44:26.171Z,101214.47
2022-08-30T02:46:52.857Z,101209.16
2022-08-30T02:49:34.957Z,101209.16
2022-08-30T02:52:03.501Z,101210.94
2022-08-30T02:54:33.054Z,101217.13
2022-08-30T02:57:04.691Z,101216.28
2022-08-30T02:59:32.059Z,101210.03
2022-08-30T03:01:59.154Z,101210.03
2022-08-30T03:04:26.893Z,101209.16
2022-08-30T03:06:54.236Z,101200.31
2022-08-30T03:09:20.750Z,101210.03
2022-08-30T03:11:47.348Z,101206.47
2022-08-30T03:14:13.887Z,101205.63
2022-08-30T03:16:40.567Z,101199.38
2022-08-30T03:19:07.138Z,101196.69
2022-08-30T03:21:33.711Z,101204.66
2022-08-30T03:24:00.321Z,101202.91
2022-08-30T03:26:26.844Z,101203.81
2022-08-30T03:28:53.445Z,101208.19
2022-08-30T03:31:20.108Z,101201.09
2022-08-30T03:33:46.823Z,101204.66
2022-08-30T03:36:13.403Z,101209.09
2022-08-30T03:38:40.504Z,101218.88
2022-08-30T03:41:07.498Z,101217.06
2022-08-30T03:43:35.693Z,101215.31
2022-08-30T03:46:03.169Z,101219.72
2022-08-30T03:48:29.785Z,101218.81
2022-08-30T03:50:56.825Z,101216.16
2022-08-30T03:53:25.678Z,101210.84
2022-08-30T03:55:54.218Z,101207.28
2022-08-30T03:58:21.417Z,101209.06
2022-08-30T04:00:48.021Z,101209.94
2022-08-30T04:03:14.955Z,101213.50
2022-08-30T04:05:41.657Z,101214.38
2022-08-30T04:08:08.378Z,101214.34
2022-08-30T04:10:35.305Z,101212.56
2022-08-30T04:13:02.480Z,101214.34
2022-08-30T04:15:29.062Z,101217.91
2022-08-30T04:17:55.604Z,101224.09
2022-08-30T04:20:22.211Z,101224.97
2022-08-30T04:22:50.080Z,101223.19
2022-08-30T04:25:17.710Z,101226.72
2022-08-30T04:27:45.943Z,101235.63
2022-08-30T04:30:13.927Z,101228.50
2022-08-30T04:32:40.483Z,101234.72
2022-08-30T04:35:07.583Z,101242.72
2022-08-30T04:37:34.120Z,101237.38
2022-08-30T04:40:00.858Z,101237.38
2022-08-30T04:42:31.739Z,101242.72
2022-08-30T04:45:00.160Z,101248.09
2022-08-30T04:47:26.670Z,101245.44
2022-08-30T04:49:53.828Z,101247.19
2022-08-30T04:52:20.612Z,101246.34
2022-08-30T04:54:47.126Z,101249.91
2022-08-30T04:57:13.817Z,101248.13
2022-08-30T04:59:40.403Z,101237.50
2022-08-30T05:02:06.974Z,101241.94
2022-08-30T05:04:33.618Z,101253.50
2022-08-30T05:07:00.119Z,101261.50
2022-08-30T05:09:26.613Z,101260.63
2022-08-30T05:11:53.421Z,101269.53
2022-08-30T05:14:20.020Z,101274.03
2022-08-30T05:16:46.651Z,101275.84
2022-08-30T05:19:13.493Z,101277.59
2022-08-30T05:21:41.348Z,101268.75
2022-08-30T05:24:08.160Z,101279.41
2022-08-30T05:26:37.979Z,101281.22
2022-08-30T05:29:04.617Z,101276.81
2022-08-30T05:31:35.930Z,101281.28
2022-08-30T05:34:03.235Z,101287.53
2022-08-30T05:36:31.721Z,101282.22
2022-08-30T05:38:58.439Z,101277.78
2022-08-30T05:41:26.663Z,101284.91
2022-08-30T05:43:56.102Z,101287.63
2022-08-30T05:46:23.170Z,101279.63
2022-08-30T05:48:50.215Z,101292.09
2022-08-30T05:51:20.101Z,101285.06
2022-08-30T05:53:48.232Z,101287.75
2022-08-30T05:56:17.484Z,101278.91
2022-08-30T05:58:44.398Z,101283.38
2022-08-30T06:01:26.604Z,101285.16
2022-08-30T06:03:58.378Z,101282.53
2022-08-30T06:06:28.900Z,101281.66
2022-08-30T06:08:56.662Z,101280.78
2022-08-30T06:11:24.951Z,101282.59
2022-08-30T06:13:54.349Z,101279.06
2022-08-30T06:16:24.744Z,101276.41
2022-08-30T06:18:52.473Z,101274.66
2022-08-30T06:21:24.875Z,101286.22
2022-08-30T06:23:52.887Z,101282.66
2022-08-30T06:26:20.004Z,101288.91
2022-08-30T06:28:46.870Z,101282.66
2022-08-30T06:31:16.365Z,101282.69
2022-08-30T06:33:43.732Z,101288.94
2022-08-30T06:36:14.056Z,101280.91
2022-08-30T06:38:41.235Z,101285.38
2022-08-30T06:41:10.436Z,101279.16
2022-08-30T06:43:37.453Z,101282.75
2022-08-30T06:46:06.696Z,101281.81
2022-08-30T06:48:33.239Z,101288.06
2022-08-30T06:50:59.932Z,101290.72
2022-08-30T06:53:29.649Z,101298.75
2022-08-30T06:56:00.885Z,101291.59
2022-08-30T06:58:29.698Z,101298.72
2022-08-30T07:00:56.355Z,101295.16
2022-08-30T07:03:23.236Z,101297.78
2022-08-30T07:05:50.281Z,101294.22
2022-08-30T07:08:17.936Z,101304.94
2022-08-30T07:10:45.445Z,101301.31
2022-08-30T07:13:12.743Z,101296.00
2022-08-30T07:15:44.718Z,101304.00
2022-08-30T07:18:31.277Z,101314.69
2022-08-30T07:20:58.290Z,101307.53
2022-08-30T07:23:25.064Z,101307.53
2022-08-30T07:25:51.607Z,101298.59
2022-08-30T07:28:18.141Z,101310.22
2022-08-30T07:30:44.845Z,101311.97
2022-08-30T07:33:11.394Z,101309.28
2022-08-30T07:35:37.899Z,101317.31
2022-08-30T07:38:04.650Z,101317.28
2022-08-30T07:40:31.298Z,101317.28
2022-08-30T07:42:58.900Z,101316.34
2022-08-30T07:45:25.446Z,101322.56
2022-08-30T07:47:52.210Z,101320.78
2022-08-30T07:50:18.725Z,101323.44
2022-08-30T07:52:45.254Z,101326.13
2022-08-30T07:55:11.772Z,101317.19
2022-08-30T07:57:38.260Z,101331.44
2022-08-30T08:00:06.225Z,101326.09
2022-08-30T08:02:40.652Z,101335.03
2022-08-30T08:05:08.423Z,101329.69
2022-08-30T08:07:35.754Z,101337.72
2022-08-30T08:10:02.498Z,101340.38
2022-08-30T08:12:29.987Z,101340.38
2022-08-30T08:14:56.499Z,101340.34
2022-08-30T08:17:23.028Z,101335.84
2022-08-30T08:19:49.622Z,101337.63
2022-08-30T08:22:23.318Z,101334.94
2022-08-30T08:24:50.971Z,101334.91
2022-08-30T08:27:17.571Z,101335.72
2022-08-30T08:29:44.178Z,101334.75
2022-08-30T08:32:10.809Z,101336.53
2022-08-30T08:34:37.475Z,101338.22
2022-08-30T08:37:04.846Z,101336.41
2022-08-30T08:39:31.380Z,101339.94
2022-08-30T08:42:10.325Z,101339.88
2022-08-30T08:47:29.287Z,101346.94
2022-08-30T08:49:59.523Z,101342.47
2022-08-30T08:53:03.884Z,101342.41
2022-08-30T08:55:30.590Z,101350.38
2022-08-30T08:57:57.634Z,101338.66
2022-08-30T09:00:24.978Z,101339.44
2022-08-30T09:03:01.742Z,101339.34
2022-08-30T09:05:35.341Z,101340.94
2022-08-30T09:08:14.052Z,101341.63
2022-08-30T09:10:50.869Z,101344.88
2022-08-30T09:13:19.730Z,101336.53
2022-08-30T09:15:54.328Z,101344.53
2022-08-30T09:18:45.729Z,101332.91
2022-08-30T09:21:13.774Z,101335.59
2022-08-30T09:23:54.692Z,101340.13
2022-08-30T09:26:33.172Z,101341.09
2022-08-30T09:29:00.926Z,101339.31
2022-08-30T09:31:32.876Z,101333.84
2022-08-30T09:34:05.405Z,101333.72
2022-08-30T09:36:40.282Z,101330.09
2022-08-30T09:39:18.599Z,101328.22
2022-08-30T09:41:49.245Z,101319.94
2022-08-30T09:44:20.045Z,101317.13
2022-08-30T09:46:50.976Z,101316.13
2022-08-30T09:49:32.688Z,101323.03
2022-08-30T09:52:12.443Z,101320.16
2022-08-30T09:54:49.191Z,101313.88
2022-08-30T09:57:34.523Z,101312.13
2022-08-30T10:00:17.356Z,101308.34
2022-08-30T10:02:46.912Z,101308.00
2022-08-30T10:05:20.617Z,101306.84
2022-08-30T10:08:15.262Z,101308.31
2022-08-30T10:10:56.115Z,101308.25
2022-08-30T10:13:52.126Z,101304.94
2022-08-30T10:16:58.963Z,101299.97
2022-08-30T10:20:04.203Z,101298.50
2022-08-30T10:23:03.126Z,101291.63
2022-08-30T10:25:39.033Z,101286.38
2022-08-30T10:28:16.986Z,101284.69
2022-08-30T10:30:52.743Z,101296.41
2022-08-30T10:33:33.259Z,101293.72
2022-08-30T10:36:04.163Z,101293.59
2022-08-30T10:38:36.314Z,101297.88
2022-08-30T10:41:28.123Z,101287.03
2022-08-30T10:43:57.356Z,101293.13
2022-08-30T10:46:49.251Z,101287.53
2022-08-30T10:49:23.557Z,101291.63
2022-08-30T10:52:01.170Z,101280.50
2022-08-30T10:54:38.494Z,101284.78
2022-08-30T10:57:05.321Z,101285.66
2022-08-30T10:59:33.843Z,101292.03
2022-08-30T11:02:23.710Z,101283.25
2022-08-30T11:05:34.494Z,101277.06
2022-08-30T11:11:16.216Z,101276.75
2022-08-30T11:13:45.234Z,101277.47
2022-08-30T11:16:18.905Z,101274.66
2022-08-30T11:18:56.396Z,101273.53
2022-08-30T11:21:38.384Z,101273.38
2022-08-30T11:24:24.994Z,101262.38
2022-08-30T11:26:58.557Z,101263.09
2022-08-30T11:29:28.108Z,101259.25
2022-08-30T11:31:56.692Z,101256.66
2022-08-30T11:34:45.218Z,101259.47
2022-08-30T11:37:30.526Z,101270.47
2022-08-30T11:40:03.905Z,101254.16
2022-08-30T11:42:37.679Z,101255.81
2022-08-30T11:45:44.249Z,101242.81
2022-08-30T11:49:09.184Z,101239.53
2022-08-30T11:55:18.133Z,101234.69
2022-08-30T11:57:48.382Z,101231.50
2022-08-30T12:00:31.532Z,101236.53
2022-08-30T12:03:30.530Z,101224.50
2022-08-30T12:06:05.753Z,101226.91
2022-08-30T12:08:34.968Z,101235.94
2022-08-30T12:11:11.954Z,101231.59
2022-08-30T12:13:44.243Z,101226.47
2022-08-30T12:16:19.867Z,101224.88
2022-08-30T12:18:50.406Z,101228.88
2022-08-30T12:21:20.200Z,101222.09
2022-08-30T12:23:58.630Z,101215.06
2022-08-30T12:26:37.102Z,101213.44
2022-08-30T12:29:30.729Z,101207.44
2022-08-30T12:32:00.419Z,101207.53
2022-08-30T12:34:50.815Z,101212.09
2022-08-30T12:37:42.078Z,101201.34
2022-08-30T12:40:20.995Z,101204.94
2022-08-30T12:43:00.330Z,101200.41
2022-08-30T12:45:50.839Z,101196.53
2022-08-30T12:48:20.016Z,101192.63
2022-08-30T12:50:53.517Z,101182.38
2022-08-30T12:53:29.107Z,101188.13
2022-08-30T12:56:07.738Z,101172.25
2022-08-30T12:58:37.608Z,101177.59
2022-08-30T13:01:18.833Z,101172.84
2022-08-30T13:03:57.490Z,101178.53
2022-08-30T13:06:49.481Z,101173.63
2022-08-30T13:09:26.993Z,101177.25
2022-08-30T13:11:54.283Z,101171.91
2022-08-30T13:14:42.440Z,101171.38
2022-08-30T13:17:19.018Z,101174.34
2022-08-30T13:20:26.228Z,101173.75
2022-08-30T13:23:10.483Z,101174.72
2022-08-30T13:25:39.617Z,101173.03
2022-08-30T13:28:07.717Z,101172.25
2022-08-30T13:30:35.252Z,101173.41
2022-08-30T13:33:02.328Z,101166.31
2022-08-30T13:35:30.424Z,101169.34
2022-08-30T13:38:00.909Z,101172.31
2022-08-30T13:40:27.866Z,101173.44
2022-08-30T13:42:54.402Z,101175.50
2022-08-30T13:48:10.737Z,101160.00
2022-08-30T13:50:37.684Z,101163.84
2022-08-30T13:53:04.267Z,101160.56
2022-08-30T13:55:30.803Z,101164.34
2022-08-30T13:57:58.048Z,101168.22
2022-08-30T14:00:26.202Z,101163.84
2022-08-30T14:02:56.078Z,101164.84
2022-08-30T14:11:05.803Z,101164.06
2022-08-30T14:13:32.623Z,101165.22
2022-08-30T14:18:48.883Z,101168.06
2022-08-30T14:21:15.737Z,101163.66
2022-08-30T14:23:42.391Z,101159.38
2022-08-30T14:26:19.698Z,101163.88
2022-08-30T14:28:46.254Z,101156.78
2022-08-30T14:31:18.387Z,101167.59
2022-08-30T14:33:46.600Z,101156.72
2022-08-30T14:36:13.147Z,101158.47
2022-08-30T14:38:42.820Z,101155.75
2022-08-30T14:41:10.812Z,101146.69
2022-08-30T14:43:39.619Z,101148.13
2022-08-30T14:46:06.248Z,101149.44
2022-08-30T14:48:32.782Z,101146.28
2022-08-30T14:50:59.382Z,101144.06
2022-08-30T14:53:26.403Z,101142.09
2022-08-30T14:55:53.009Z,101133.16
2022-08-30T14:58:19.530Z,101131.38
2022-08-30T15:00:50.972Z,101133.28
2022-08-30T15:03:17.712Z,101137.78
2022-08-30T15:05:53.032Z,101135.03
2022-08-30T15:08:19.797Z,101127.66
2022-08-30T15:10:47.478Z,101129.44
2022-08-30T15:13:14.186Z,101143.97
2022-08-30T15:15:42.990Z,101132.44
2022-08-30T15:18:10.503Z,101128.16
2022-08-30T15:20:37.546Z,101127.44
2022-08-30T15:23:04.239Z,101124.84
2022-08-30T15:25:31.621Z,101124.84
2022-08-30T15:27:58.249Z,101122.09
2022-08-30T15:30:25.354Z,101116.59
2022-08-30T15:32:51.905Z,101122.78
2022-08-30T15:35:18.503Z,101117.25
2022-08-30T15:37:45.296Z,101119.78
2022-08-30T15:40:11.981Z,101116.13
2022-08-30T15:42:39.958Z,101120.50
2022-08-30T15:45:09.441Z,101118.72
2022-08-30T15:47:36.050Z,101123.13
2022-08-30T15:50:05.372Z,101115.81
2022-08-30T15:52:32.759Z,101110.63
2022-08-30T15:54:59.589Z,101119.34
2022-08-30T15:57:26.932Z,101120.16
2022-08-30T15:59:56.545Z,101117.41
2022-08-30T16:02:27.501Z,101115.19
2022-08-30T16:04:54.711Z,101113.75
2022-08-30T16:07:21.394Z,101125.88
2022-08-30T16:09:47.976Z,101117.19
2022-08-30T16:12:23.400Z,101122.31
2022-08-30T16:14:51.103Z,101113.50
2022-08-30T16:17:18.184Z,101112.75
2022-08-30T16:19:44.979Z,101116.88
2022-08-30T16:22:11.673Z,101113.25
2022-08-30T16:24:38.811Z,101120.69
2022-08-30T16:27:05.784Z,101114.13
2022-08-30T16:29:35.463Z,101110.81
2022-08-30T16:32:02.137Z,101109.84
2022-08-30T16:34:28.739Z,101111.56
2022-08-30T16:36:55.340Z,101106.56
2022-08-30T16:39:22.380Z,101116.38
2022-08-30T16:41:49.322Z,101108.75
2022-08-30T16:44:17.835Z,101108.03
2022-08-30T16:46:52.576Z,101110.69
2022-08-30T16:49:20.069Z,101106.50
2022-08-30T16:51:48.977Z,101107.19
2022-08-30T16:54:17.381Z,101107.06
2022-08-30T16:56:45.695Z,101114.59
2022-08-30T16:59:13.243Z,101113.34
2022-08-30T17:01:42.438Z,101111.97
2022-08-30T17:04:10.022Z,101113.38
2022-08-30T17:06:37.122Z,101109.81
2022-08-30T17:09:08.393Z,101106.91
2022-08-30T17:11:36.704Z,101104.91
2022-08-30T17:14:04.735Z,101099.94
2022-08-30T17:16:31.744Z,101110.75
2022-08-30T17:19:01.123Z,101111.41
2022-08-30T17:21:30.608Z,101119.09
2022-08-30T17:24:02.008Z,101118.41
2022-08-30T17:26:31.712Z,101119.50
2022-08-30T17:28:58.411Z,101130.28
2022-08-30T17:31:27.789Z,101125.75
2022-08-30T17:34:02.972Z,101130.09
2022-08-30T17:36:32.703Z,101136.06
2022-08-30T17:39:04.268Z,101142.91
2022-08-30T17:41:39.580Z,101138.84
2022-08-30T17:44:08.522Z,101140.28
2022-08-30T17:46:35.906Z,101146.94
2022-08-30T17:49:02.648Z,101150.00
2022-08-30T17:51:30.427Z,101147.56
2022-08-30T17:53:57.635Z,101153.28
2022-08-30T17:56:24.311Z,101153.53
2022-08-30T17:59:00.885Z,101152.91
2022-08-30T18:01:28.217Z,101159.50
2022-08-30T18:04:01.758Z,101161.56
2022-08-30T18:06:29.140Z,101163.63
2022-08-30T18:08:55.850Z,101171.94
2022-08-30T18:11:22.780Z,101169.44
2022-08-30T18:13:50.130Z,101180.41
2022-08-30T18:16:21.497Z,101185.09
2022-08-30T18:18:57.047Z,101181.72
2022-08-30T18:21:24.418Z,101189.03
2022-08-30T18:23:52.433Z,101191.00
2022-08-30T18:26:24.374Z,101200.13
2022-08-30T18:28:51.392Z,101202.97
2022-08-30T18:31:18.292Z,101202.19
2022-08-30T18:33:45.614Z,101204.09
2022-08-30T18:36:12.323Z,101202.44
2022-08-30T18:38:39.387Z,101197.19
2022-08-30T18:41:09.036Z,101200.03
2022-08-30T18:43:37.130Z,101216.25
2022-08-30T18:46:09.363Z,101219.06
2022-08-30T18:48:36.603Z,101211.09
2022-08-30T18:51:04.150Z,101220.16
2022-08-30T18:53:32.066Z,101215.78
2022-08-30T18:55:58.595Z,101224.78
2022-08-30T18:58:25.206Z,101223.97
2022-08-30T19:00:56.704Z,101224.88
2022-08-30T19:03:23.667Z,101229.44
2022-08-30T19:05:50.436Z,101228.66
2022-08-30T19:08:17.085Z,101219.72
2022-08-30T19:10:44.412Z,101219.81
2022-08-30T19:13:11.060Z,101222.59
2022-08-30T19:15:38.009Z,101227.09
2022-08-30T19:18:17.190Z,101220.91
2022-08-30T19:20:48.881Z,101223.66
2022-08-30T19:23:15.451Z,101225.50
2022-08-30T19:25:42.341Z,101239.84
2022-08-30T19:28:10.126Z,101238.09
2022-08-30T19:30:36.972Z,101238.13
2022-08-30T19:33:03.705Z,101228.38
2022-08-30T19:35:33.283Z,101240.03
2022-08-30T19:37:59.954Z,101232.91
2022-08-30T19:40:26.644Z,101233.84
2022-08-30T19:42:53.520Z,101232.09
2022-08-30T19:45:22.738Z,101237.47
2022-08-30T19:47:50.750Z,101241.97
2022-08-30T19:50:18.164Z,101238.41
2022-08-30T19:52:51.005Z,101242.03
2022-08-30T19:55:28.210Z,101243.84
2022-08-30T19:57:56.454Z,101239.44
2022-08-30T20:00:23.489Z,101248.34
2022-08-30T20:02:51.148Z,101246.59
2022-08-30T20:05:18.973Z,101253.78
2022-08-30T20:07:45.628Z,101249.31
2022-08-30T20:10:15.331Z,101239.53
2022-08-30T20:12:46.887Z,101239.56
2022-08-30T20:15:17.293Z,101241.38
2022-08-30T20:18:03.291Z,101241.38
2022-08-30T20:20:33.609Z,101240.53
2022-08-30T20:23:03.721Z,101242.38
2022-08-30T20:25:30.773Z,101245.09
2022-08-30T20:27:57.436Z,101240.63
2022-08-30T20:30:23.908Z,101249.56
2022-08-30T20:32:52.573Z,101255.78
2022-08-30T20:35:19.187Z,101254.06
2022-08-30T20:37:46.581Z,101257.63
2022-08-30T20:40:15.969Z,101252.28
2022-08-30T20:42:45.714Z,101255.88
2022-08-30T20:45:14.837Z,101258.59
2022-08-30T20:47:43.040Z,101255.00
2022-08-30T20:50:13.626Z,101255.91
2022-08-30T20:52:41.225Z,101255.94
2022-08-30T20:55:09.170Z,101265.75
2022-08-30T20:57:35.716Z,101255.09
2022-08-30T21:00:02.503Z,101259.56
2022-08-30T21:02:29.479Z,101255.09
2022-08-30T21:04:56.142Z,101257.75
2022-08-30T21:07:22.719Z,101256.88
2022-08-30T21:09:50.199Z,101253.31
2022-08-30T21:12:16.776Z,101255.13
2022-08-30T21:14:43.273Z,101258.66
2022-08-30T21:17:10.006Z,101254.25
2022-08-30T21:19:38.868Z,101260.47
2022-08-30T21:22:07.696Z,101264.03
2022-08-30T21:24:35.047Z,101264.03
2022-08-30T21:27:01.658Z,101266.69
2022-08-30T21:29:29.539Z,101267.59
2022-08-30T21:31:56.885Z,101268.50
2022-08-30T21:34:24.264Z,101268.47
2022-08-30T21:36:51.265Z,101272.94
2022-08-30T21:39:22.395Z,101275.56
2022-08-30T21:41:51.093Z,101269.31
2022-08-30T21:44:20.644Z,101267.56
2022-08-30T21:46:48.596Z,101278.22
2022-08-30T21:49:18.225Z,101270.22
2022-08-30T21:51:46.955Z,101274.66
2022-08-30T21:54:17.103Z,101286.25
2022-08-30T21:56:46.409Z,101284.47
2022-08-30T21:59:15.549Z,101288.91
2022-08-30T22:01:43.192Z,101286.22
2022-08-30T22:04:11.131Z,101292.50
2022-08-30T22:06:39.473Z,101290.69
2022-08-30T22:09:10.180Z,101296.91
2022-08-30T22:11:37.561Z,101296.06
2022-08-30T22:14:05.189Z,101299.66
2022-08-30T22:16:31.877Z,101295.19
2022-08-30T22:18:59.347Z,101298.75
2022-08-30T22:21:27.837Z,101303.19
2022-08-30T22:23:55.048Z,101304.09
2022-08-30T22:26:23.869Z,101305.00
2022-08-30T22:28:52.144Z,101305.88
2022-08-30T22:31:22.860Z,101301.44
2022-08-30T22:33:50.454Z,101310.31
2022-08-30T22:36:32.241Z,101302.28
2022-08-30T22:39:01.148Z,101303.19
2022-08-30T22:41:31.270Z,101303.19
2022-08-30T22:43:58.685Z,101305.00
2022-08-30T22:46:34.050Z,101310.31
2022-08-30T22:49:02.353Z,101307.66
2022-08-30T22:51:29.006Z,101309.44
2022-08-30T22:53:55.906Z,101304.13
2022-08-30T22:56:26.181Z,101306.75
2022-08-30T22:58:54.777Z,101301.41
2022-08-30T23:01:30.634Z,101301.41
2022-08-30T23:03:58.522Z,101308.53
2022-08-30T23:06:25.312Z,101301.41
2022-08-30T23:08:51.874Z,101304.97
2022-08-30T23:11:19.294Z,101299.66
2022-08-30T23:13:46.433Z,101306.72
2022-08-30T23:16:14.569Z,101307.59
2022-08-30T23:18:43.672Z,101314.72
2022-08-30T23:21:13.496Z,101313.81
2022-08-30T23:23:59.473Z,101320.94
2022-08-30T23:26:44.727Z,101324.50
2022-08-30T23:29:30.976Z,101322.75
2022-08-30T23:32:16.272Z,101328.03
2022-08-30T23:35:01.799Z,101325.38
2022-08-30T23:37:47.277Z,101332.53
2022-08-30T23:40:35.411Z,101322.72
2022-08-30T23:43:20.688Z,101328.03
2022-08-30T23:46:05.584Z,101328.03
2022-08-30T23:48:52.162Z,101335.19
2022-08-30T23:51:37.731Z,101330.75
2022-08-30T23:54:24.111Z,101336.97
2022-08-30T23:57:10.289Z,101337.84
2022-08-30T23:59:55.711Z,101330.75
